createdAt,value
2023-03-11T00:00:47.085Z,11.95
2023-03-11T00:03:28.127Z,9.45
2023-03-11T00:06:00.019Z,11.35
2023-03-11T00:08:50.016Z,9.80
2023-03-11T00:11:27.561Z,12.82
2023-03-11T00:14:01.931Z,9.35
2023-03-11T00:16:49.884Z,9.02
2023-03-11T00:19:34.161Z,10.35
2023-03-11T00:22:06.748Z,8.52
2023-03-11T00:25:00.621Z,10.63
2023-03-11T00:27:33.437Z,10.30
2023-03-11T00:30:13.427Z,10.30
2023-03-11T00:35:49.791Z,9.65
2023-03-11T00:38:23.159Z,8.68
2023-03-11T00:41:04.484Z,10.88
2023-03-11T00:43:36.501Z,9.80
2023-03-11T00:46:13.305Z,10.35
2023-03-11T00:48:52.912Z,11.52
2023-03-11T00:51:28.691Z,8.82
2023-03-11T00:54:12.473Z,9.73
2023-03-11T00:56:55.600Z,10.20
2023-03-11T00:59:30.495Z,8.10
2023-03-11T01:02:03.927Z,7.20
2023-03-11T01:04:40.836Z,7.78
2023-03-11T01:07:21.793Z,6.93
2023-03-11T01:10:00.310Z,7.10
2023-03-11T01:12:45.684Z,9.00
2023-03-11T01:15:27.182Z,10.30
2023-03-11T01:18:10.343Z,6.60
2023-03-11T01:20:44.157Z,7.05
2023-03-11T01:23:17.791Z,7.03
2023-03-11T01:26:01.075Z,6.78
2023-03-11T01:28:50.207Z,6.40
2023-03-11T01:31:28.521Z,7.65
2023-03-11T01:34:15.169Z,8.98
2023-03-11T01:36:58.292Z,6.93
2023-03-11T01:39:36.429Z,7.55
2023-03-11T01:42:14.345Z,9.07
2023-03-11T01:44:56.575Z,8.13
2023-03-11T01:47:49.905Z,10.57
2023-03-11T01:50:24.430Z,10.90
2023-03-11T01:53:03.029Z,10.35
2023-03-11T01:55:37.543Z,11.35
2023-03-11T01:58:24.076Z,12.15
2023-03-11T02:01:04.420Z,13.52
2023-03-11T02:03:52.684Z,10.85
2023-03-11T02:06:32.095Z,14.32
2023-03-11T02:09:18.885Z,14.35
2023-03-11T02:12:07.295Z,14.38
2023-03-11T02:14:59.069Z,14.20
2023-03-11T02:17:37.044Z,12.23
2023-03-11T02:20:24.035Z,15.15
2023-03-11T02:23:10.299Z,16.98
2023-03-11T02:25:52.630Z,13.40
2023-03-11T02:28:44.470Z,14.55
2023-03-11T02:31:29.769Z,14.07
2023-03-11T02:34:09.581Z,17.50
2023-03-11T02:39:43.069Z,15.23
2023-03-11T02:42:22.320Z,13.40
2023-03-11T02:45:17.146Z,15.70
2023-03-11T02:48:01.835Z,16.30
2023-03-11T02:53:34.735Z,16.27
2023-03-11T02:56:12.225Z,18.33
2023-03-11T02:58:49.922Z,13.77
2023-03-11T03:01:33.198Z,15.43
2023-03-11T03:04:07.878Z,14.48
2023-03-11T03:06:42.584Z,13.30
2023-03-11T03:09:21.204Z,12.50
2023-03-11T03:12:01.825Z,10.77
2023-03-11T03:14:42.059Z,13.75
2023-03-11T03:17:28.196Z,13.07
2023-03-11T03:20:06.063Z,12.20
2023-03-11T03:22:42.556Z,13.60
2023-03-11T03:25:22.367Z,12.68
2023-03-11T03:27:55.255Z,13.38
2023-03-11T03:30:41.955Z,14.13
2023-03-11T03:33:36.319Z,14.25
2023-03-11T03:36:22.421Z,14.65
2023-03-11T03:39:30.513Z,14.20
2023-03-11T03:42:04.236Z,14.10
2023-03-11T03:44:41.654Z,17.02
2023-03-11T03:47:19.032Z,22.92
2023-03-11T03:50:18.222Z,17.25
2023-03-11T03:52:57.409Z,17.03
2023-03-11T03:55:34.211Z,15.95
2023-03-11T03:58:08.956Z,16.35
2023-03-11T04:00:57.283Z,12.00
2023-03-11T04:03:52.847Z,13.68
2023-03-11T04:06:33.052Z,12.38
2023-03-11T04:09:20.171Z,14.95
2023-03-11T04:11:55.394Z,13.23
2023-03-11T04:14:30.276Z,12.32
2023-03-11T04:17:22.489Z,13.50
2023-03-11T04:20:04.013Z,14.85
2023-03-11T04:22:47.235Z,14.93
2023-03-11T04:25:23.732Z,12.88
2023-03-11T04:28:01.392Z,14.20
2023-03-11T04:30:47.450Z,16.20
2023-03-11T04:33:26.113Z,14.05
2023-03-11T04:36:05.642Z,16.17
2023-03-11T04:38:41.868Z,16.77
2023-03-11T04:41:22.579Z,14.55
2023-03-11T04:43:58.647Z,14.68
2023-03-11T04:46:33.257Z,14.23
2023-03-11T04:49:12.417Z,14.57
2023-03-11T04:51:47.865Z,13.25
2023-03-11T04:54:27.573Z,14.38
2023-03-11T04:57:08.130Z,14.18
2023-03-11T04:59:44.884Z,12.47
2023-03-11T05:02:18.053Z,18.13
2023-03-11T05:05:02.420Z,12.57
2023-03-11T05:07:35.328Z,14.63
2023-03-11T05:10:40.873Z,14.85
2023-03-11T05:13:21.333Z,17.05
2023-03-11T05:15:59.631Z,25.40
2023-03-11T05:18:34.708Z,21.42
2023-03-11T05:21:12.714Z,13.63
2023-03-11T05:23:50.748Z,14.00
2023-03-11T05:26:29.576Z,14.15
2023-03-11T05:29:08.280Z,13.68
2023-03-11T05:31:42.108Z,14.23
2023-03-11T05:34:18.149Z,15.20
2023-03-11T05:36:58.196Z,15.20
2023-03-11T05:39:59.860Z,12.18
2023-03-11T05:42:44.433Z,14.65
2023-03-11T05:45:40.128Z,18.33
2023-03-11T05:48:26.293Z,10.15
2023-03-11T05:50:58.282Z,7.88
2023-03-11T05:53:39.254Z,10.57
2023-03-11T05:56:28.691Z,12.25
2023-03-11T05:59:05.341Z,10.65
2023-03-11T06:01:46.214Z,12.48
2023-03-11T06:04:28.962Z,16.25
2023-03-11T06:07:05.863Z,13.93
2023-03-11T06:09:51.600Z,12.40
2023-03-11T06:12:22.644Z,11.35
2023-03-11T06:15:22.775Z,11.15
2023-03-11T06:17:56.644Z,9.93
2023-03-11T06:20:30.873Z,7.70
2023-03-11T06:23:10.812Z,7.20
2023-03-11T06:25:50.049Z,8.60
2023-03-11T06:28:23.602Z,7.68
2023-03-11T06:31:02.446Z,7.80
2023-03-11T06:33:45.159Z,7.90
2023-03-11T06:36:22.393Z,6.47
2023-03-11T06:39:00.975Z,9.30
2023-03-11T06:41:46.452Z,17.50
2023-03-11T06:44:20.693Z,13.23
2023-03-11T06:47:18.184Z,9.50
2023-03-11T06:49:57.709Z,10.43
2023-03-11T06:52:28.847Z,12.38
2023-03-11T06:55:06.963Z,12.93
2023-03-11T06:57:40.650Z,14.35
2023-03-11T07:00:23.445Z,13.65
2023-03-11T07:03:04.276Z,15.95
2023-03-11T07:05:38.696Z,6.03
2023-03-11T07:08:15.028Z,6.07
2023-03-11T07:10:50.632Z,4.50
2023-03-11T07:13:32.634Z,4.75
2023-03-11T07:16:17.171Z,4.57
2023-03-11T07:19:06.438Z,4.20
2023-03-11T07:21:46.420Z,3.42
2023-03-11T07:24:21.099Z,5.28
2023-03-11T07:27:08.767Z,6.00
2023-03-11T07:29:49.007Z,3.20
2023-03-11T07:32:27.202Z,3.08
2023-03-11T07:35:06.157Z,3.78
2023-03-11T07:37:40.968Z,5.07
2023-03-11T07:40:31.277Z,5.65
2023-03-11T07:46:10.052Z,4.63
2023-03-11T07:48:50.241Z,5.80
2023-03-11T07:51:43.751Z,6.25
2023-03-11T07:54:23.429Z,3.38
2023-03-11T07:57:03.208Z,4.13
2023-03-11T07:59:40.726Z,2.83
2023-03-11T08:02:16.472Z,4.95
2023-03-11T08:04:57.255Z,2.33
2023-03-11T08:07:47.322Z,3.65
2023-03-11T08:10:21.525Z,3.70
2023-03-11T08:12:59.739Z,2.55
2023-03-11T08:15:31.974Z,2.03
2023-03-11T08:18:25.392Z,3.25
2023-03-11T08:21:05.063Z,2.40
2023-03-11T08:24:03.388Z,4.65
2023-03-11T08:26:45.661Z,3.95
2023-03-11T08:29:26.870Z,17.23
2023-03-11T08:32:11.352Z,8.07
2023-03-11T08:34:49.071Z,5.57
2023-03-11T08:37:21.015Z,4.47
2023-03-11T08:39:58.223Z,7.25
2023-03-11T08:42:32.374Z,6.85
2023-03-11T08:45:09.920Z,3.38
2023-03-11T08:47:46.957Z,4.93
2023-03-11T08:50:25.426Z,5.30
2023-03-11T08:53:00.649Z,8.13
2023-03-11T08:55:44.898Z,4.55
2023-03-11T08:58:18.111Z,4.97
2023-03-11T09:00:55.909Z,5.88
2023-03-11T09:03:33.667Z,4.53
2023-03-11T09:06:16.500Z,7.57
2023-03-11T09:09:04.479Z,7.05
2023-03-11T09:11:47.620Z,6.35
2023-03-11T09:14:27.926Z,3.50
2023-03-11T09:17:01.734Z,8.93
2023-03-11T09:19:38.405Z,13.55
2023-03-11T09:22:14.369Z,14.10
2023-03-11T09:24:57.516Z,16.58
2023-03-11T09:27:33.312Z,19.77
2023-03-11T09:30:09.918Z,15.93
2023-03-11T09:32:47.724Z,19.33
2023-03-11T09:35:23.819Z,20.42
2023-03-11T09:38:01.156Z,17.20
2023-03-11T09:40:50.131Z,12.98
2023-03-11T09:43:45.952Z,24.70
2023-03-11T09:46:55.814Z,11.80
2023-03-11T09:49:40.658Z,18.80
2023-03-11T09:52:32.423Z,17.90
2023-03-11T09:55:27.149Z,19.70
2023-03-11T09:58:03.094Z,18.25
2023-03-11T10:00:59.285Z,21.55
2023-03-11T10:03:40.998Z,13.25
2023-03-11T10:06:32.966Z,10.65
2023-03-11T10:09:26.781Z,20.25
2023-03-11T10:12:23.349Z,23.30
2023-03-11T10:15:26.257Z,16.50
2023-03-11T10:18:40.879Z,15.68
2023-03-11T10:21:33.912Z,16.95
2023-03-11T10:24:46.333Z,15.43
2023-03-11T10:27:31.215Z,14.60
2023-03-11T10:30:13.472Z,16.27
2023-03-11T10:33:00.390Z,14.60
2023-03-11T10:35:45.991Z,13.85
2023-03-11T10:38:38.744Z,14.02
2023-03-11T10:41:21.296Z,24.85
2023-03-11T10:44:04.461Z,21.65
2023-03-11T10:46:41.995Z,13.07
2023-03-11T10:49:27.651Z,9.30
2023-03-11T10:52:29.904Z,8.48
2023-03-11T10:55:11.467Z,15.82
2023-03-11T10:57:51.671Z,11.95
2023-03-11T11:00:43.066Z,19.27
2023-03-11T11:03:48.172Z,9.88
2023-03-11T11:06:49.465Z,14.85
2023-03-11T11:09:34.934Z,11.50
2023-03-11T11:12:21.163Z,14.50
2023-03-11T11:15:15.489Z,8.50
2023-03-11T11:17:59.733Z,10.73
2023-03-11T11:20:41.420Z,10.05
2023-03-11T11:23:32.939Z,10.43
2023-03-11T11:26:23.979Z,7.55
2023-03-11T11:29:25.228Z,6.60
2023-03-11T11:32:25.228Z,10.70
2023-03-11T11:35:08.235Z,17.38
2023-03-11T11:37:53.486Z,16.35
2023-03-11T11:43:34.210Z,8.07
2023-03-11T11:46:17.165Z,10.13
2023-03-11T11:49:06.147Z,11.02
2023-03-11T11:51:46.547Z,6.68
2023-03-11T11:54:30.918Z,11.07
2023-03-11T11:57:06.905Z,8.32
2023-03-11T11:59:41.604Z,13.88
2023-03-11T12:03:01.938Z,10.25
2023-03-11T12:05:35.160Z,17.52
2023-03-11T12:08:18.573Z,11.10
2023-03-11T12:10:59.113Z,16.33
2023-03-11T12:14:13.773Z,12.27
2023-03-11T12:16:58.728Z,11.60
2023-03-11T12:19:49.577Z,9.30
2023-03-11T12:22:54.442Z,16.45
2023-03-11T12:25:49.755Z,10.82
2023-03-11T12:28:42.077Z,8.30
2023-03-11T12:31:22.544Z,12.85
2023-03-11T12:34:05.635Z,14.88
2023-03-11T12:36:39.344Z,10.10
2023-03-11T12:39:25.736Z,11.77
2023-03-11T12:42:29.420Z,11.32
2023-03-11T12:45:45.071Z,10.65
2023-03-11T12:48:43.584Z,11.82
2023-03-11T12:51:55.062Z,15.52
2023-03-11T12:54:38.894Z,12.93
2023-03-11T12:57:31.828Z,10.50
2023-03-11T13:00:36.502Z,15.73
2023-03-11T13:03:58.640Z,10.38
2023-03-11T13:07:18.476Z,14.30
2023-03-11T13:10:15.438Z,7.70
2023-03-11T13:12:52.238Z,13.63
2023-03-11T13:15:48.069Z,10.63
2023-03-11T13:18:32.844Z,10.50
2023-03-11T13:21:08.909Z,5.93
2023-03-11T13:23:48.937Z,9.88
2023-03-11T13:26:41.994Z,4.75
2023-03-11T13:29:49.410Z,5.25
2023-03-11T13:33:14.912Z,4.78
2023-03-11T13:36:13.307Z,10.35
2023-03-11T13:39:25.276Z,8.60
2023-03-11T13:42:07.411Z,7.88
2023-03-11T13:44:55.154Z,10.05
2023-03-11T13:47:40.542Z,6.82
2023-03-11T13:50:33.787Z,5.95
2023-03-11T13:53:11.855Z,11.07
2023-03-11T13:56:03.377Z,17.83
2023-03-11T13:58:49.344Z,12.38
2023-03-11T14:01:26.048Z,11.05
2023-03-11T14:04:00.942Z,11.10
2023-03-11T14:06:35.782Z,9.95
2023-03-11T14:09:36.708Z,9.90
2023-03-11T14:12:24.034Z,4.68
2023-03-11T14:15:20.859Z,7.57
2023-03-11T14:18:32.882Z,5.95
2023-03-11T14:21:21.522Z,9.13
2023-03-11T14:24:01.418Z,4.15
2023-03-11T14:26:38.111Z,3.90
2023-03-11T14:29:14.913Z,6.60
2023-03-11T14:31:51.914Z,5.30
2023-03-11T14:34:25.733Z,8.77
2023-03-11T14:36:58.959Z,10.27
2023-03-11T14:39:33.660Z,10.40
2023-03-11T14:42:10.521Z,23.05
2023-03-11T14:44:45.539Z,16.05
2023-03-11T14:47:24.413Z,8.90
2023-03-11T14:49:57.890Z,11.25
2023-03-11T14:52:37.787Z,8.00
2023-03-11T14:55:18.340Z,8.77
2023-03-11T14:57:55.730Z,9.85
2023-03-11T15:00:29.502Z,11.27
2023-03-11T15:03:25.944Z,9.13
2023-03-11T15:06:12.147Z,12.02
2023-03-11T15:09:12.688Z,9.00
2023-03-11T15:11:56.030Z,14.52
2023-03-11T15:14:28.517Z,15.05
2023-03-11T15:17:33.093Z,12.57
2023-03-11T15:20:35.101Z,13.32
2023-03-11T15:23:25.893Z,11.32
2023-03-11T15:26:06.638Z,14.07
2023-03-11T15:28:52.055Z,9.40
2023-03-11T15:31:50.494Z,9.30
2023-03-11T15:34:38.835Z,7.40
2023-03-11T15:37:27.176Z,10.30
2023-03-11T15:40:19.440Z,6.85
2023-03-11T15:43:36.935Z,9.20
2023-03-11T15:46:13.413Z,13.45
2023-03-11T15:48:58.495Z,8.75
2023-03-11T15:52:07.302Z,6.63
2023-03-11T15:54:54.486Z,8.18
2023-03-11T15:57:35.844Z,11.95
2023-03-11T16:00:29.112Z,14.30
2023-03-11T16:03:05.413Z,10.65
2023-03-11T16:05:45.310Z,15.25
2023-03-11T16:08:22.655Z,8.77
2023-03-11T16:11:06.959Z,14.23
2023-03-11T16:13:49.028Z,11.02
2023-03-11T16:16:39.168Z,25.42
2023-03-11T16:19:19.212Z,20.10
2023-03-11T16:22:01.964Z,19.98
2023-03-11T16:24:46.494Z,24.25
2023-03-11T16:27:38.202Z,27.98
2023-03-11T16:30:20.292Z,24.17
2023-03-11T16:33:05.124Z,34.55
2023-03-11T16:35:48.048Z,28.40
2023-03-11T16:38:24.750Z,13.93
2023-03-11T16:41:08.072Z,17.90
2023-03-11T16:43:53.679Z,28.45
2023-03-11T16:46:27.329Z,19.60
2023-03-11T16:49:08.807Z,18.25
2023-03-11T16:51:52.449Z,21.65
2023-03-11T16:54:35.619Z,35.13
2023-03-11T16:57:23.633Z,23.73
2023-03-11T17:00:08.973Z,29.50
2023-03-11T17:02:42.224Z,21.27
2023-03-11T17:05:25.886Z,19.08
2023-03-11T17:08:09.739Z,14.85
2023-03-11T17:10:55.323Z,14.48
2023-03-11T17:13:31.999Z,15.57
2023-03-11T17:16:15.077Z,13.68
2023-03-11T17:19:02.510Z,16.00
2023-03-11T17:21:39.409Z,16.45
2023-03-11T17:24:26.488Z,16.52
2023-03-11T17:27:02.199Z,20.35
2023-03-11T17:29:42.762Z,26.67
2023-03-11T17:32:26.801Z,20.98
2023-03-11T17:35:03.990Z,23.90
2023-03-11T17:37:40.932Z,25.80
2023-03-11T17:40:24.242Z,25.15
2023-03-11T17:43:00.296Z,24.80
2023-03-11T17:45:42.920Z,35.33
2023-03-11T17:48:35.739Z,33.28
2023-03-11T17:51:12.952Z,36.33
2023-03-11T17:53:50.858Z,38.72
2023-03-11T17:56:31.872Z,50.70
2023-03-11T17:59:07.900Z,36.72
2023-03-11T18:01:51.339Z,31.73
2023-03-11T18:04:36.449Z,30.33
2023-03-11T18:07:15.042Z,28.30
2023-03-11T18:09:54.519Z,24.83
2023-03-11T18:12:26.579Z,26.67
2023-03-11T18:14:57.527Z,28.27
2023-03-11T18:20:19.319Z,31.92
2023-03-11T18:22:50.088Z,27.95
2023-03-11T18:25:29.073Z,30.02
2023-03-11T18:28:08.994Z,29.38
2023-03-11T18:30:44.589Z,25.40
2023-03-11T18:33:19.260Z,23.30
2023-03-11T18:36:03.684Z,17.88
2023-03-11T18:38:41.638Z,16.38
2023-03-11T18:41:18.437Z,16.48
2023-03-11T18:43:50.762Z,17.40
2023-03-11T18:46:23.341Z,16.55
2023-03-11T18:48:58.183Z,15.80
2023-03-11T18:51:51.881Z,20.23
2023-03-11T18:54:28.559Z,19.27
2023-03-11T18:57:02.565Z,25.90
2023-03-11T18:59:50.188Z,26.00
2023-03-11T19:02:28.455Z,26.58
2023-03-11T19:05:12.385Z,27.30
2023-03-11T19:07:54.610Z,22.33
2023-03-11T19:10:48.354Z,22.08
2023-03-11T19:13:45.862Z,23.20
2023-03-11T19:16:25.274Z,20.52
2023-03-11T19:19:06.412Z,18.35
2023-03-11T19:21:52.452Z,18.33
2023-03-11T19:27:48.353Z,17.58
2023-03-11T19:30:33.126Z,19.58
2023-03-11T19:33:25.854Z,17.00
2023-03-11T19:36:24.106Z,20.63
2023-03-11T19:39:03.418Z,19.90
2023-03-11T19:42:10.496Z,22.42
2023-03-11T19:44:48.469Z,23.20
2023-03-11T19:47:23.228Z,24.88
2023-03-11T19:50:01.256Z,26.83
2023-03-11T19:52:42.758Z,26.60
2023-03-11T19:55:26.719Z,23.52
2023-03-11T19:58:16.844Z,18.83
2023-03-11T20:01:04.823Z,17.83
2023-03-11T20:03:53.314Z,20.00
2023-03-11T20:06:28.675Z,25.33
2023-03-11T20:09:07.395Z,21.42
2023-03-11T20:11:50.037Z,20.15
2023-03-11T20:14:31.521Z,17.92
2023-03-11T20:17:05.690Z,22.15
2023-03-11T20:19:44.805Z,22.67
2023-03-11T20:22:21.306Z,18.43
2023-03-11T20:25:07.451Z,16.17
2023-03-11T20:28:05.402Z,16.25
2023-03-11T20:30:52.266Z,14.02
2023-03-11T20:33:56.280Z,16.45
2023-03-11T20:36:33.107Z,16.20
2023-03-11T20:39:23.165Z,15.73
2023-03-11T20:42:10.107Z,12.00
2023-03-11T20:44:59.632Z,14.38
2023-03-11T20:47:58.042Z,12.18
2023-03-11T20:50:32.608Z,10.73
2023-03-11T20:56:17.980Z,21.98
2023-03-11T20:58:56.580Z,14.18
2023-03-11T21:01:33.775Z,11.60
2023-03-11T21:04:21.127Z,8.52
2023-03-11T21:07:00.001Z,7.47
2023-03-11T21:09:36.506Z,11.23
2023-03-11T21:12:25.168Z,16.85
2023-03-11T21:15:06.082Z,17.27
2023-03-11T21:17:45.043Z,15.18
2023-03-11T21:20:30.413Z,16.95
2023-03-11T21:23:13.723Z,14.25
2023-03-11T21:25:55.932Z,15.18
2023-03-11T21:28:38.114Z,20.55
2023-03-11T21:34:02.044Z,10.57
2023-03-11T21:36:40.276Z,8.38
2023-03-11T21:39:26.992Z,6.72
2023-03-11T21:42:20.557Z,5.85
2023-03-11T21:45:06.923Z,7.18
2023-03-11T21:47:53.086Z,9.40
2023-03-11T21:50:38.330Z,10.65
2023-03-11T21:53:20.700Z,7.85
2023-03-11T21:56:08.365Z,9.80
2023-03-11T21:58:50.845Z,8.13
2023-03-11T22:01:34.901Z,12.98
2023-03-11T22:04:16.089Z,8.43
2023-03-11T22:06:58.631Z,7.63
2023-03-11T22:09:41.020Z,10.52
2023-03-11T22:12:26.946Z,12.07
2023-03-11T22:15:13.775Z,8.48
2023-03-11T22:18:08.558Z,6.47
2023-03-11T22:20:45.337Z,9.05
2023-03-11T22:23:30.300Z,9.85
2023-03-11T22:26:15.645Z,10.82
2023-03-11T22:28:53.813Z,6.07
2023-03-11T22:31:26.302Z,8.35
2023-03-11T22:34:04.189Z,4.25
2023-03-11T22:36:42.527Z,7.65
2023-03-11T22:39:20.067Z,5.53
2023-03-11T22:42:03.978Z,10.30
2023-03-11T22:44:41.333Z,8.23
2023-03-11T22:47:21.766Z,10.05
2023-03-11T22:50:00.710Z,8.60
2023-03-11T22:52:41.921Z,5.97
2023-03-11T22:55:23.624Z,7.03
2023-03-11T22:58:05.497Z,4.60
2023-03-11T23:00:50.181Z,6.40
2023-03-11T23:03:35.478Z,9.00
2023-03-11T23:06:14.833Z,7.70
2023-03-11T23:08:50.589Z,8.35
2023-03-11T23:11:27.991Z,5.13
2023-03-11T23:14:20.564Z,8.88
2023-03-11T23:17:10.632Z,6.40
2023-03-11T23:19:55.559Z,7.90
2023-03-11T23:22:44.302Z,5.57
2023-03-11T23:25:25.369Z,7.38
2023-03-11T23:30:52.736Z,6.93
2023-03-11T23:33:35.042Z,7.03
2023-03-11T23:36:20.190Z,8.10
2023-03-11T23:38:56.948Z,6.43
2023-03-11T23:41:52.009Z,6.47
2023-03-11T23:44:30.384Z,6.68
2023-03-11T23:47:10.132Z,10.45
2023-03-11T23:49:53.544Z,4.88
2023-03-11T23:52:31.759Z,9.05
2023-03-11T23:55:14.318Z,6.85
2023-03-11T23:57:49.912Z,6.25
